createdAt,value
2018-07-08T00:00:33.260Z,2.20
2018-07-08T00:03:01.604Z,1.87
2018-07-08T00:05:29.944Z,1.80
2018-07-08T00:07:58.269Z,2.17
2018-07-08T00:10:26.576Z,2.00
2018-07-08T00:12:54.907Z,1.83
2018-07-08T00:15:23.232Z,2.13
2018-07-08T00:17:51.661Z,2.07
2018-07-08T00:20:19.996Z,2.00
2018-07-08T00:22:48.315Z,2.03
2018-07-08T00:25:16.667Z,2.43
2018-07-08T00:27:45.014Z,2.03
2018-07-08T00:30:13.371Z,1.70
2018-07-08T00:32:41.687Z,2.00
2018-07-08T00:35:10.020Z,2.00
2018-07-08T00:37:38.352Z,2.43
2018-07-08T00:40:06.730Z,1.93
2018-07-08T00:42:35.042Z,2.00
2018-07-08T00:45:03.380Z,2.30
2018-07-08T00:47:31.720Z,1.70
2018-07-08T00:50:00.063Z,1.80
2018-07-08T00:52:28.384Z,2.10
2018-07-08T00:54:56.961Z,2.13
2018-07-08T00:57:25.311Z,2.03
2018-07-08T00:59:53.648Z,2.00
2018-07-08T01:02:21.969Z,2.20
2018-07-08T01:04:50.292Z,1.83
2018-07-08T01:07:18.629Z,2.00
2018-07-08T01:09:46.940Z,2.17
2018-07-08T01:12:15.259Z,1.90
2018-07-08T01:14:43.619Z,2.13
2018-07-08T01:17:11.947Z,2.03
2018-07-08T01:19:40.286Z,2.30
2018-07-08T01:22:08.615Z,2.10
2018-07-08T01:24:36.939Z,2.40
2018-07-08T01:27:05.412Z,2.00
2018-07-08T01:29:33.734Z,2.27
2018-07-08T01:32:02.059Z,2.10
2018-07-08T01:34:30.393Z,2.10
2018-07-08T01:36:58.709Z,2.60
2018-07-08T01:39:27.029Z,1.93
2018-07-08T01:41:55.360Z,2.23
2018-07-08T01:44:23.776Z,2.07
2018-07-08T01:46:52.082Z,2.30
2018-07-08T01:49:20.401Z,2.33
2018-07-08T01:51:48.736Z,2.20
2018-07-08T01:54:17.049Z,2.10
2018-07-08T01:56:45.423Z,2.80
2018-07-08T01:59:13.759Z,2.30
2018-07-08T02:01:42.116Z,2.37
2018-07-08T02:04:10.450Z,2.40
2018-07-08T02:06:38.772Z,2.27
2018-07-08T02:09:07.153Z,2.00
2018-07-08T02:11:35.449Z,2.00
2018-07-08T02:14:03.763Z,2.27
2018-07-08T02:16:32.119Z,2.20
2018-07-08T02:19:00.473Z,2.13
2018-07-08T02:21:28.807Z,2.67
2018-07-08T02:23:57.149Z,2.33
2018-07-08T02:26:25.475Z,2.20
2018-07-08T02:28:53.819Z,2.20
2018-07-08T02:31:22.166Z,2.67
2018-07-08T02:33:50.488Z,2.03
2018-07-08T02:36:18.818Z,2.50
2018-07-08T02:38:47.197Z,2.70
2018-07-08T02:41:15.541Z,2.10
2018-07-08T02:43:43.864Z,2.13
2018-07-08T02:46:12.195Z,2.37
2018-07-08T02:48:40.564Z,2.20
2018-07-08T02:51:08.901Z,2.30
2018-07-08T02:53:37.225Z,2.47
2018-07-08T02:56:05.583Z,2.43
2018-07-08T02:58:33.993Z,2.53
2018-07-08T03:01:02.329Z,2.73
2018-07-08T03:03:30.644Z,2.40
2018-07-08T03:05:59.044Z,2.73
2018-07-08T03:08:27.361Z,2.37
2018-07-08T03:10:55.701Z,2.93
2018-07-08T03:13:24.017Z,2.47
2018-07-08T03:15:52.321Z,2.57
2018-07-08T03:18:20.636Z,2.60
2018-07-08T03:20:48.988Z,2.33
2018-07-08T03:23:17.286Z,2.70
2018-07-08T03:25:45.631Z,2.80
2018-07-08T03:28:13.955Z,2.23
2018-07-08T03:30:42.333Z,2.73
2018-07-08T03:33:10.646Z,3.37
2018-07-08T03:35:38.951Z,2.47
2018-07-08T03:38:07.270Z,2.50
2018-07-08T03:40:35.578Z,2.50
2018-07-08T03:43:03.878Z,2.63
2018-07-08T03:45:32.291Z,2.57
2018-07-08T03:48:00.647Z,2.33
2018-07-08T03:50:28.975Z,2.50
2018-07-08T03:52:57.292Z,2.00
2018-07-08T03:55:25.632Z,2.50
2018-07-08T03:57:53.970Z,2.60
2018-07-08T04:00:22.289Z,2.33
2018-07-08T04:02:50.605Z,2.70
2018-07-08T04:05:18.943Z,2.70
2018-07-08T04:07:47.278Z,2.67
2018-07-08T04:10:15.596Z,2.47
2018-07-08T04:12:43.911Z,2.73
2018-07-08T04:15:12.238Z,2.50
2018-07-08T04:17:40.628Z,2.67
2018-07-08T04:20:08.960Z,2.50
2018-07-08T04:22:37.291Z,2.90
2018-07-08T04:25:05.635Z,2.30
2018-07-08T04:27:33.978Z,2.30
2018-07-08T04:30:02.295Z,2.27
2018-07-08T04:32:30.647Z,2.60
2018-07-08T04:34:58.987Z,3.10
2018-07-08T04:37:27.312Z,2.63
2018-07-08T04:39:55.654Z,3.00
2018-07-08T04:42:23.960Z,2.80
2018-07-08T04:44:52.283Z,2.87
2018-07-08T04:47:20.611Z,2.30
2018-07-08T04:49:48.931Z,2.73
2018-07-08T04:52:17.269Z,2.50
2018-07-08T04:54:45.576Z,2.60
2018-07-08T04:57:13.901Z,2.37
2018-07-08T04:59:42.240Z,2.60
2018-07-08T05:02:10.568Z,2.67
2018-07-08T05:04:38.887Z,2.87
2018-07-08T05:07:07.232Z,2.50
2018-07-08T05:09:36.375Z,2.80
2018-07-08T05:12:04.710Z,2.87
2018-07-08T05:14:33.050Z,2.50
2018-07-08T05:17:01.373Z,2.43
2018-07-08T05:19:29.738Z,2.63
2018-07-08T05:21:58.064Z,2.67
2018-07-08T05:24:26.444Z,2.93
2018-07-08T05:26:55.182Z,2.47
2018-07-08T05:29:23.514Z,2.60
2018-07-08T05:31:51.843Z,2.80
2018-07-08T05:34:20.170Z,3.10
2018-07-08T05:36:48.520Z,2.83
2018-07-08T05:39:16.888Z,2.67
2018-07-08T05:41:45.271Z,2.70
2018-07-08T05:44:13.585Z,3.10
2018-07-08T05:46:41.924Z,3.23
2018-07-08T05:49:10.223Z,2.47
2018-07-08T05:51:38.549Z,3.00
2018-07-08T05:54:06.872Z,3.20
2018-07-08T05:56:35.220Z,2.50
2018-07-08T05:59:03.544Z,2.93
2018-07-08T06:01:31.893Z,3.73
2018-07-08T06:04:00.213Z,2.83
2018-07-08T06:06:28.540Z,2.70
2018-07-08T06:08:56.868Z,3.10
2018-07-08T06:11:25.182Z,3.37
2018-07-08T06:13:53.767Z,3.23
2018-07-08T06:16:22.354Z,3.30
2018-07-08T06:18:50.937Z,3.03
2018-07-08T06:21:19.269Z,3.00
2018-07-08T06:23:47.612Z,3.67
2018-07-08T06:26:15.941Z,3.80
2018-07-08T06:28:44.267Z,3.40
2018-07-08T06:31:12.613Z,3.33
2018-07-08T06:33:40.965Z,3.30
2018-07-08T06:36:09.300Z,4.13
2018-07-08T06:38:37.608Z,3.83
2018-07-08T06:41:05.925Z,4.10
2018-07-08T06:43:34.223Z,4.57
2018-07-08T06:46:02.567Z,3.77
2018-07-08T06:48:30.899Z,4.57
2018-07-08T06:50:59.203Z,4.03
2018-07-08T06:53:27.510Z,4.63
2018-07-08T06:55:55.846Z,4.57
2018-07-08T06:58:24.157Z,3.83
2018-07-08T07:00:52.459Z,4.40
2018-07-08T07:03:20.765Z,4.43
2018-07-08T07:05:49.089Z,4.47
2018-07-08T07:08:17.412Z,4.87
2018-07-08T07:10:45.728Z,4.43
2018-07-08T07:13:14.073Z,4.43
2018-07-08T07:15:42.415Z,4.07
2018-07-08T07:18:10.794Z,4.77
2018-07-08T07:20:39.117Z,4.47
2018-07-08T07:23:07.486Z,5.03
2018-07-08T07:25:35.832Z,4.20
2018-07-08T07:28:04.172Z,4.47
2018-07-08T07:30:32.490Z,4.27
2018-07-08T07:33:00.820Z,4.40
2018-07-08T07:35:29.176Z,4.23
2018-07-08T07:37:57.583Z,4.17
2018-07-08T07:40:25.908Z,4.77
2018-07-08T07:42:54.244Z,4.90
2018-07-08T07:45:22.604Z,3.93
2018-07-08T07:47:50.934Z,4.23
2018-07-08T07:50:19.287Z,4.67
2018-07-08T07:52:47.652Z,4.80
2018-07-08T07:55:15.973Z,5.27
2018-07-08T07:57:44.304Z,4.93
2018-07-08T08:00:12.621Z,4.80
2018-07-08T08:02:40.931Z,4.43
2018-07-08T08:05:09.525Z,4.60
2018-07-08T08:07:38.095Z,4.50
2018-07-08T08:10:06.887Z,4.20
2018-07-08T08:12:35.240Z,4.50
2018-07-08T08:15:03.641Z,4.47
2018-07-08T08:17:31.954Z,4.63
2018-07-08T08:20:00.276Z,4.60
2018-07-08T08:22:29.802Z,5.10
2018-07-08T08:24:58.154Z,5.60
2018-07-08T08:27:26.498Z,5.60
2018-07-08T08:29:54.816Z,5.87
2018-07-08T08:32:23.173Z,5.70
2018-07-08T08:35:22.337Z,5.30
2018-07-08T08:37:51.810Z,4.97
2018-07-08T08:40:24.198Z,4.63
2018-07-08T08:42:52.984Z,5.10
2018-07-08T08:45:22.184Z,5.13
2018-07-08T08:47:50.513Z,5.27
2018-07-08T08:50:18.873Z,5.03
2018-07-08T08:52:47.189Z,4.77
2018-07-08T08:55:15.692Z,4.77
2018-07-08T08:57:44.041Z,4.27
2018-07-08T09:00:14.203Z,4.30
2018-07-08T09:02:42.555Z,4.77
2018-07-08T09:05:11.178Z,4.50
2018-07-08T09:07:39.749Z,4.90
2018-07-08T09:10:08.182Z,5.37
2018-07-08T09:12:36.552Z,5.47
2018-07-08T09:15:04.929Z,5.53
2018-07-08T09:17:33.286Z,5.37
2018-07-08T09:20:01.644Z,5.47
2018-07-08T09:22:30.360Z,4.53
2018-07-08T09:24:58.715Z,4.60
2018-07-08T09:27:27.064Z,4.87
2018-07-08T09:29:55.372Z,4.65
2018-07-08T09:32:23.718Z,4.47
2018-07-08T09:34:52.039Z,4.50
2018-07-08T09:37:20.387Z,4.67
2018-07-08T09:39:48.746Z,3.90
2018-07-08T09:42:17.059Z,3.72
2018-07-08T09:44:45.405Z,3.90
2018-07-08T09:47:13.717Z,3.90
2018-07-08T09:49:42.051Z,3.55
2018-07-08T09:52:10.363Z,4.05
2018-07-08T09:54:38.727Z,3.15
2018-07-08T09:57:07.056Z,3.52
2018-07-08T09:59:35.380Z,3.80
2018-07-08T10:02:03.708Z,3.80
2018-07-08T10:04:32.085Z,3.92
2018-07-08T10:07:00.382Z,4.12
2018-07-08T10:09:28.726Z,4.30
2018-07-08T10:11:57.091Z,4.33
2018-07-08T10:14:25.464Z,4.50
2018-07-08T10:16:53.794Z,4.08
2018-07-08T10:19:22.377Z,4.17
2018-07-08T10:21:50.656Z,5.00
2018-07-08T10:24:19.001Z,4.53
2018-07-08T10:27:29.665Z,5.05
2018-07-08T10:29:57.989Z,4.78
2018-07-08T10:32:26.333Z,5.58
2018-07-08T10:34:54.657Z,5.80
2018-07-08T10:37:22.971Z,5.62
2018-07-08T10:39:51.291Z,5.47
2018-07-08T10:42:19.629Z,5.63
2018-07-08T10:44:47.967Z,5.60
2018-07-08T10:47:16.290Z,5.67
2018-07-08T10:49:44.641Z,5.47
2018-07-08T10:52:12.972Z,5.50
2018-07-08T10:54:41.367Z,5.90
2018-07-08T10:57:09.722Z,5.60
2018-07-08T10:59:38.093Z,6.60
2018-07-08T11:02:06.452Z,5.63
2018-07-08T11:04:34.813Z,5.60
2018-07-08T11:07:03.176Z,5.17
2018-07-08T11:09:31.541Z,5.63
2018-07-08T11:11:59.846Z,5.90
2018-07-08T11:14:28.200Z,5.60
2018-07-08T11:16:56.543Z,5.67
2018-07-08T11:19:24.893Z,5.03
2018-07-08T11:21:53.535Z,5.07
2018-07-08T11:24:21.868Z,5.83
2018-07-08T11:26:50.294Z,5.43
2018-07-08T11:29:18.645Z,5.93
2018-07-08T11:31:46.995Z,5.60
2018-07-08T11:34:15.329Z,5.27
2018-07-08T11:36:43.741Z,6.10
2018-07-08T11:39:12.088Z,5.43
2018-07-08T11:41:40.456Z,5.53
2018-07-08T11:44:08.799Z,5.97
2018-07-08T11:46:37.122Z,5.90
2018-07-08T11:49:05.490Z,5.97
2018-07-08T11:51:33.813Z,5.47
2018-07-08T11:54:02.142Z,5.43
2018-07-08T11:56:30.571Z,5.23
2018-07-08T11:58:58.945Z,6.17
2018-07-08T12:01:27.298Z,5.60
2018-07-08T12:03:55.637Z,5.33
2018-07-08T12:06:24.043Z,6.43
2018-07-08T12:08:52.419Z,5.63
2018-07-08T12:11:20.738Z,5.57
2018-07-08T12:13:49.050Z,5.70
2018-07-08T12:16:17.419Z,5.77
2018-07-08T12:18:45.789Z,6.30
2018-07-08T12:21:14.157Z,5.87
2018-07-08T12:23:43.165Z,5.90
2018-07-08T12:26:11.965Z,6.00
2018-07-08T12:30:04.700Z,6.10
2018-07-08T12:32:33.041Z,6.13
2018-07-08T12:35:01.455Z,5.90
2018-07-08T12:37:29.901Z,6.10
2018-07-08T12:39:58.238Z,6.00
2018-07-08T12:42:26.560Z,5.67
2018-07-08T12:44:54.902Z,6.10
2018-07-08T12:47:23.265Z,5.50
2018-07-08T12:49:51.612Z,5.87
2018-07-08T12:52:19.943Z,6.50
2018-07-08T12:54:48.316Z,5.87
2018-07-08T12:57:16.658Z,5.73
2018-07-08T12:59:45.009Z,5.87
2018-07-08T13:02:14.412Z,5.83
2018-07-08T13:04:42.751Z,6.40
2018-07-08T13:07:11.098Z,6.10
2018-07-08T13:09:39.476Z,6.10
2018-07-08T13:12:07.916Z,5.90
2018-07-08T13:14:36.240Z,5.50
2018-07-08T13:17:04.600Z,6.30
2018-07-08T13:19:32.933Z,6.17
2018-07-08T13:22:01.313Z,6.10
2018-07-08T13:24:29.637Z,6.17
2018-07-08T13:26:57.973Z,5.90
2018-07-08T13:29:26.347Z,6.10
2018-07-08T13:31:54.748Z,6.17
2018-07-08T13:34:23.103Z,6.37
2018-07-08T13:36:51.450Z,6.33
2018-07-08T13:39:19.875Z,5.73
2018-07-08T13:41:48.136Z,5.77
2018-07-08T13:44:16.456Z,5.13
2018-07-08T13:46:44.787Z,5.70
2018-07-08T13:49:13.141Z,6.20
2018-07-08T13:51:41.501Z,6.20
2018-07-08T13:54:09.836Z,5.63
2018-07-08T13:56:38.258Z,5.07
2018-07-08T13:59:06.576Z,5.23
2018-07-08T14:01:35.102Z,5.47
2018-07-08T14:04:03.493Z,5.20
2018-07-08T14:06:32.188Z,5.00
2018-07-08T14:09:00.530Z,5.20
2018-07-08T14:11:28.853Z,5.20
2018-07-08T14:13:57.155Z,4.57
2018-07-08T14:16:25.466Z,5.07
2018-07-08T14:18:53.792Z,4.90
2018-07-08T14:21:22.097Z,4.90
2018-07-08T14:23:51.059Z,5.13
2018-07-08T14:26:19.409Z,5.33
2018-07-08T14:28:47.721Z,4.80
2018-07-08T14:31:16.058Z,5.30
2018-07-08T14:33:44.412Z,5.17
2018-07-08T14:36:12.753Z,5.43
2018-07-08T14:38:41.082Z,5.20
2018-07-08T14:41:09.410Z,5.20
2018-07-08T14:43:37.745Z,4.90
2018-07-08T14:46:06.110Z,4.93
2018-07-08T14:48:34.492Z,4.70
2018-07-08T14:51:02.842Z,5.07
2018-07-08T14:53:31.168Z,4.93
2018-07-08T14:55:59.486Z,5.00
2018-07-08T14:58:27.894Z,4.70
2018-07-08T15:00:56.218Z,5.00
2018-07-08T15:03:24.583Z,4.30
2018-07-08T15:05:52.932Z,4.33
2018-07-08T15:08:21.276Z,4.80
2018-07-08T15:10:49.583Z,4.90
2018-07-08T15:13:17.926Z,4.80
2018-07-08T15:15:46.261Z,5.03
2018-07-08T15:19:39.030Z,4.57
2018-07-08T15:22:07.416Z,4.83
2018-07-08T15:24:35.778Z,4.77
2018-07-08T15:27:04.251Z,4.30
2018-07-08T15:29:32.585Z,4.73
2018-07-08T15:32:00.886Z,4.57
2018-07-08T15:34:29.232Z,4.97
2018-07-08T15:36:57.704Z,4.80
2018-07-08T15:39:26.036Z,4.93
2018-07-08T15:41:54.355Z,4.33
2018-07-08T15:44:22.924Z,5.10
2018-07-08T15:46:51.370Z,4.90
2018-07-08T15:49:19.663Z,4.90
2018-07-08T15:51:48.020Z,5.10
2018-07-08T15:54:16.580Z,5.17
2018-07-08T15:56:44.924Z,4.93
2018-07-08T15:59:13.276Z,5.00
2018-07-08T16:01:41.585Z,4.77
2018-07-08T16:04:09.892Z,4.47
2018-07-08T16:06:38.203Z,4.57
2018-07-08T16:09:06.772Z,5.00
2018-07-08T16:11:35.317Z,5.47
2018-07-08T16:14:04.064Z,4.20
2018-07-08T16:16:32.399Z,4.73
2018-07-08T16:19:00.736Z,4.83
2018-07-08T16:21:29.296Z,4.70
2018-07-08T16:23:57.633Z,5.07
2018-07-08T16:26:25.980Z,5.37
2018-07-08T16:28:54.326Z,5.10
2018-07-08T16:31:22.730Z,4.90
2018-07-08T16:33:51.067Z,4.33
2018-07-08T16:36:19.400Z,4.63
2018-07-08T16:38:47.710Z,4.97
2018-07-08T16:41:16.028Z,4.60
2018-07-08T16:43:44.374Z,4.83
2018-07-08T16:46:15.904Z,4.20
2018-07-08T16:48:44.227Z,4.70
2018-07-08T16:51:12.557Z,4.80
2018-07-08T16:53:40.893Z,4.60
2018-07-08T16:56:09.284Z,4.20
2018-07-08T16:58:37.659Z,4.47
2018-07-08T17:01:06.125Z,3.93
2018-07-08T17:03:34.597Z,3.77
2018-07-08T17:06:02.952Z,3.90
2018-07-08T17:08:31.519Z,3.90
2018-07-08T17:10:59.838Z,4.50
2018-07-08T17:13:28.344Z,4.07
2018-07-08T17:15:56.850Z,4.10
2018-07-08T17:18:25.386Z,3.93
2018-07-08T17:20:53.767Z,4.30
2018-07-08T17:23:22.182Z,3.70
2018-07-08T17:25:50.533Z,3.53
2018-07-08T17:28:18.991Z,4.10
2018-07-08T17:30:47.324Z,3.70
2018-07-08T17:33:15.704Z,3.60
2018-07-08T17:35:44.141Z,4.17
2018-07-08T17:38:12.462Z,3.60
2018-07-08T17:40:40.811Z,3.90
2018-07-08T17:44:38.308Z,3.43
2018-07-08T17:47:06.649Z,4.00
2018-07-08T17:49:35.671Z,3.47
2018-07-08T17:52:03.993Z,3.60
2018-07-08T17:54:32.336Z,3.83
2018-07-08T17:57:00.682Z,3.57
2018-07-08T17:59:29.015Z,3.57
2018-07-08T18:01:57.344Z,3.50
2018-07-08T18:04:25.716Z,3.50
2018-07-08T18:06:54.048Z,4.17
2018-07-08T18:09:22.392Z,3.80
2018-07-08T18:11:50.715Z,3.50
2018-07-08T18:14:19.044Z,4.00
2018-07-08T18:16:47.397Z,3.23
2018-07-08T18:19:15.724Z,3.53
2018-07-08T18:21:44.101Z,3.83
2018-07-08T18:24:12.467Z,3.17
2018-07-08T18:26:40.789Z,3.40
2018-07-08T18:29:09.136Z,3.33
2018-07-08T18:31:37.471Z,3.10
2018-07-08T18:34:05.818Z,3.33
2018-07-08T18:36:34.161Z,3.10
2018-07-08T18:39:02.494Z,3.00
2018-07-08T18:41:30.819Z,3.60
2018-07-08T18:43:59.172Z,3.13
2018-07-08T18:46:27.518Z,3.30
2018-07-08T18:48:55.888Z,2.90
2018-07-08T18:51:24.596Z,3.10
2018-07-08T18:53:52.961Z,3.07
2018-07-08T18:56:21.405Z,3.00
2018-07-08T18:58:49.879Z,3.30
2018-07-08T19:01:18.223Z,3.17
2018-07-08T19:03:48.038Z,2.97
2018-07-08T19:06:16.497Z,3.10
2018-07-08T19:08:44.857Z,3.50
2018-07-08T19:11:13.180Z,3.37
2018-07-08T19:13:41.830Z,3.40
2018-07-08T19:16:10.203Z,3.07
2018-07-08T19:18:38.519Z,3.33
2018-07-08T19:21:07.215Z,3.40
2018-07-08T19:23:35.589Z,3.17
2018-07-08T19:26:03.960Z,3.03
2018-07-08T19:28:32.322Z,2.83
2018-07-08T19:31:00.649Z,3.23
2018-07-08T19:33:29.026Z,2.93
2018-07-08T19:35:57.439Z,3.23
2018-07-08T19:38:25.754Z,2.90
2018-07-08T19:40:54.241Z,3.20
2018-07-08T19:43:22.586Z,3.00
2018-07-08T19:45:51.183Z,3.13
2018-07-08T19:48:19.723Z,3.10
2018-07-08T19:50:48.031Z,3.23
2018-07-08T19:53:16.354Z,2.80
2018-07-08T19:55:44.708Z,3.00
2018-07-08T19:58:13.052Z,2.80
2018-07-08T20:00:41.379Z,3.10
2018-07-08T20:03:10.104Z,3.33
2018-07-08T20:05:38.436Z,3.30
2018-07-08T20:08:06.772Z,4.03
2018-07-08T20:10:35.098Z,3.30
2018-07-08T20:13:03.579Z,3.00
2018-07-08T20:15:31.957Z,3.07
2018-07-08T20:18:00.410Z,3.40
2018-07-08T20:20:28.711Z,3.50
2018-07-08T20:22:57.355Z,3.53
2018-07-08T20:25:25.708Z,3.30
2018-07-08T20:27:54.078Z,3.00
2018-07-08T20:30:22.493Z,3.37
2018-07-08T20:32:50.799Z,2.97
2018-07-08T20:35:19.167Z,3.40
2018-07-08T20:37:47.650Z,3.50
2018-07-08T20:40:15.976Z,3.60
2018-07-08T20:42:44.296Z,3.43
2018-07-08T20:45:12.637Z,3.67
2018-07-08T20:47:40.955Z,3.23
2018-07-08T20:50:09.302Z,3.83
2018-07-08T20:52:37.659Z,3.50
2018-07-08T20:55:06.001Z,3.57
2018-07-08T20:57:34.374Z,3.53
2018-07-08T21:00:02.721Z,3.43
2018-07-08T21:02:31.292Z,3.80
2018-07-08T21:04:59.637Z,3.50
2018-07-08T21:07:27.974Z,3.30
2018-07-08T21:09:56.322Z,3.63
2018-07-08T21:12:24.661Z,3.80
2018-07-08T21:14:53.032Z,3.63
2018-07-08T21:17:21.669Z,4.00
2018-07-08T21:19:50.078Z,3.57
2018-07-08T21:22:18.707Z,3.60
2018-07-08T21:24:47.737Z,3.40
2018-07-08T21:27:16.057Z,3.70
2018-07-08T21:29:44.664Z,3.67
2018-07-08T21:32:13.564Z,3.60
2018-07-08T21:34:42.451Z,3.67
2018-07-08T21:37:11.258Z,3.63
2018-07-08T21:39:39.688Z,3.60
2018-07-08T21:42:08.136Z,3.47
2018-07-08T21:44:37.131Z,3.73
2018-07-08T21:47:06.277Z,3.87
2018-07-08T21:49:34.899Z,3.80
2018-07-08T21:52:03.568Z,3.50
2018-07-08T21:54:31.945Z,3.60
2018-07-08T21:57:00.597Z,4.17
2018-07-08T21:59:29.072Z,3.80
2018-07-08T22:02:04.113Z,3.37
2018-07-08T22:04:33.034Z,3.97
2018-07-08T22:07:07.144Z,3.53
2018-07-08T22:09:35.991Z,3.70
2018-07-08T22:12:04.462Z,3.33
2018-07-08T22:14:32.865Z,3.33
2018-07-08T22:17:01.260Z,3.70
2018-07-08T22:19:29.786Z,3.37
2018-07-08T22:21:58.174Z,3.60
2018-07-08T22:24:26.519Z,3.40
2018-07-08T22:26:55.124Z,3.57
2018-07-08T22:29:23.449Z,3.50
2018-07-08T22:31:51.796Z,3.47
2018-07-08T22:34:20.204Z,3.40
2018-07-08T22:36:48.518Z,3.37
2018-07-08T22:39:17.175Z,3.57
2018-07-08T22:41:46.096Z,3.53
2018-07-08T22:44:14.445Z,3.23
2018-07-08T22:46:42.977Z,3.40
2018-07-08T22:49:11.304Z,3.40
2018-07-08T22:51:40.124Z,3.47
2018-07-08T22:54:08.696Z,3.57
2018-07-08T22:56:37.025Z,3.20
2018-07-08T22:59:05.615Z,3.23
2018-07-08T23:01:45.380Z,3.37
2018-07-08T23:04:14.081Z,3.50
2018-07-08T23:06:42.651Z,3.47
2018-07-08T23:09:11.668Z,4.03
2018-07-08T23:11:40.033Z,3.37
2018-07-08T23:14:08.337Z,3.87
2018-07-08T23:16:36.722Z,3.90
2018-07-08T23:19:05.065Z,3.33
2018-07-08T23:21:33.403Z,3.50
2018-07-08T23:24:01.725Z,3.37
2018-07-08T23:26:30.043Z,3.33
2018-07-08T23:28:58.403Z,3.70
2018-07-08T23:31:26.735Z,3.20
2018-07-08T23:33:55.062Z,3.90
2018-07-08T23:36:23.480Z,3.57
2018-07-08T23:38:51.799Z,3.50
2018-07-08T23:41:20.131Z,3.37
2018-07-08T23:43:48.463Z,3.23
2018-07-08T23:46:16.793Z,3.20
2018-07-08T23:48:44.179Z,3.50
2018-07-08T23:51:12.523Z,3.77
2018-07-08T23:53:40.836Z,3.50
2018-07-08T23:56:09.171Z,3.47
2018-07-08T23:58:37.516Z,3.20
